This is the latest recevied weather packets stored in our database for station/object SP6PWT-13. If no packets are shown the sender has not sent any weather packets the latest 1 day(s).
| Time | Temp. | Humidity | Pressure | Rain* | Wind** | Luminosity | Snow |
|---|---|---|---|---|---|---|---|
| 1836274695 | 15° C | 89% | 1005.4 hPa | 0 mm | 3.58 m/s, 126° | 0 W/m² | - |
| 1836274558 | 14.44° C | 89% | 1005.1 hPa | 0 mm | 3.58 m/s, 111° | 0 W/m² | - |
| 1836274395 | 15° C | 90% | 1005.3 hPa | 0 mm | 3.13 m/s, 131° | 0 W/m² | - |
| 1836274256 | 15° C | 90% | 1005.3 hPa | 0 mm | 3.58 m/s, 122° | 0 W/m² | - |
| 1836274084 | 15° C | 89% | 1005.5 hPa | 0 mm | 3.13 m/s, 139° | 0 W/m² | - |
| 1778024878 | 14.44° C | 71% | 988.5 hPa | 0 mm | 0.89 m/s, 30° | 0 W/m² | - |
| 1778024578 | 14.44° C | 71% | 988.6 hPa | 0 mm | 1.79 m/s, 307° | 0 W/m² | - |
| 1778024277 | 14.44° C | 72% | 988.5 hPa | 0 mm | 1.79 m/s, 302° | 0 W/m² | - |
| 1778023977 | 14.44° C | 71% | 988.5 hPa | 0 mm | 2.24 m/s, 314° | 0 W/m² | - |
| 1778023676 | 14.44° C | 71% | 988.6 hPa | 0 mm | 0.89 m/s, 341° | 0 W/m² | - |
| 1778023376 | 14.44° C | 71% | 988.6 hPa | 0 mm | 1.34 m/s, 311° | 0 W/m² | - |
| 1778023075 | 14.44° C | 70% | 988.5 hPa | 0 mm | 1.79 m/s, 336° | 0 W/m² | - |
| 1778022775 | 14.44° C | 70% | 988.5 hPa | 0 mm | 1.79 m/s, 325° | 0 W/m² | - |
| 1778022475 | 15° C | 70% | 988.5 hPa | 0 mm | 2.68 m/s, 354° | 0 W/m² | - |
| 1778022174 | 15° C | 70% | 988.6 hPa | 0 mm | 1.79 m/s, 10° | 0 W/m² | - |
| 1778021873 | 15° C | 69% | 988.7 hPa | 0 mm | 2.24 m/s, 20° | 0 W/m² | - |
| 1778021573 | 15° C | 69% | 988.7 hPa | 0 mm | 2.24 m/s, 330° | 0 W/m² | - |
| 1778021273 | 15° C | 69% | 988.8 hPa | 0 mm | 2.24 m/s, 359° | 0 W/m² | - |
| 1778020971 | 15.56° C | 69% | 988.6 hPa | 0 mm | 1.79 m/s, 6° | 0 W/m² | - |
| 1778020671 | 15.56° C | 68% | 988.9 hPa | 0 mm | 1.79 m/s, 353° | 0 W/m² | - |
| 1778020370 | 15.56° C | 68% | 988.9 hPa | 0 mm | 1.79 m/s, 357° | 0 W/m² | - |
| 1778020066 | 15.56° C | 68% | 989.1 hPa | 0 mm | 1.79 m/s, 25° | 0 W/m² | - |
| 1778019766 | 15.56° C | 68% | 989 hPa | 0 mm | 1.34 m/s, 4° | 0 W/m² | - |
| 1778019466 | 15.56° C | 68% | 989.1 hPa | 0 mm | 0.89 m/s, 38° | 0 W/m² | - |
| 1778019165 | 15.56° C | 68% | 989.1 hPa | 0 mm | 0.89 m/s, 24° | 0 W/m² | - |
* Rain latest hour (hover to see other rain measurements)
** Current wind speed in m/s (hover to see current wind gust speed)